createdAt,value
2023-06-04T00:00:52.016Z,83.26
2023-06-04T00:01:51.997Z,83.46
2023-06-04T00:02:52.031Z,83.97
2023-06-04T00:03:52.063Z,84.07
2023-06-04T00:04:51.992Z,84.31
2023-06-04T00:05:51.969Z,84.72
2023-06-04T00:06:51.938Z,84.62
2023-06-04T00:07:51.918Z,84.82
2023-06-04T00:08:51.929Z,85.03
2023-06-04T00:09:51.920Z,85.03
2023-06-04T00:10:51.908Z,84.72
2023-06-04T00:11:51.977Z,85.33
2023-06-04T00:12:51.867Z,85.23
2023-06-04T00:13:51.873Z,84.92
2023-06-04T00:14:51.844Z,84.21
2023-06-04T00:15:51.869Z,84.62
2023-06-04T00:16:51.929Z,84.52
2023-06-04T00:17:51.860Z,84.62
2023-06-04T00:18:51.793Z,84.42
2023-06-04T00:19:51.785Z,84.52
2023-06-04T00:20:51.764Z,84.42
2023-06-04T00:21:51.755Z,84.66
2023-06-04T00:22:51.762Z,85.06
2023-06-04T00:23:51.771Z,85.88
2023-06-04T00:24:51.720Z,85.27
2023-06-04T00:25:51.706Z,85.58
2023-06-04T00:26:51.707Z,85.78
2023-06-04T00:27:51.688Z,85.88
2023-06-04T00:28:51.680Z,85.78
2023-06-04T00:29:51.718Z,85.68
2023-06-04T00:30:51.672Z,85.78
2023-06-04T00:31:51.668Z,85.72
2023-06-04T00:32:51.725Z,85.72
2023-06-04T00:33:51.647Z,85.72
2023-06-04T00:34:51.612Z,85.82
2023-06-04T00:35:51.623Z,86.13
2023-06-04T00:36:51.622Z,86.22
2023-06-04T00:37:51.562Z,86.83
2023-06-04T00:38:51.563Z,86.94
2023-06-04T00:39:51.578Z,86.83
2023-06-04T00:40:51.574Z,87.35
2023-06-04T00:41:51.526Z,86.94
2023-06-04T00:42:51.517Z,86.63
2023-06-04T00:43:51.541Z,86.43
2023-06-04T00:44:51.500Z,86.94
2023-06-04T00:45:51.528Z,87.14
2023-06-04T00:46:51.524Z,87.55
2023-06-04T00:47:51.513Z,87.24
2023-06-04T00:48:51.453Z,87.45
2023-06-04T00:49:51.481Z,86.94
2023-06-04T00:50:51.447Z,86.98
2023-06-04T00:51:51.560Z,87.08
2023-06-04T00:52:51.425Z,87.18
2023-06-04T00:53:51.463Z,87.29
2023-06-04T00:54:51.392Z,87.29
2023-06-04T00:55:51.382Z,87.90
2023-06-04T00:56:51.400Z,88.31
2023-06-04T00:57:51.356Z,87.94
2023-06-04T00:58:51.353Z,88.34
2023-06-04T00:59:51.345Z,88.14
2023-06-04T01:00:51.339Z,88.24
2023-06-04T01:01:51.310Z,88.34
2023-06-04T01:02:51.335Z,88.24
2023-06-04T01:03:51.339Z,88.14
2023-06-04T01:04:51.268Z,88.14
2023-06-04T01:05:51.251Z,88.45
2023-06-04T01:06:51.254Z,88.04
2023-06-04T01:07:51.244Z,88.24
2023-06-04T01:08:51.243Z,88.24
2023-06-04T01:09:51.237Z,88.75
2023-06-04T01:10:51.200Z,88.34
2023-06-04T01:11:51.206Z,88.65
2023-06-04T01:12:51.188Z,88.85
2023-06-04T01:13:51.196Z,88.85
2023-06-04T01:14:51.197Z,88.65
2023-06-04T01:15:51.171Z,89.00
2023-06-04T01:16:51.210Z,89.20
2023-06-04T01:17:51.153Z,89.51
2023-06-04T01:18:51.134Z,89.40
2023-06-04T01:19:51.129Z,89.81
2023-06-04T01:20:51.086Z,90.06
2023-06-04T01:21:51.094Z,90.16
2023-06-04T01:22:51.080Z,90.57
2023-06-04T01:23:51.103Z,90.88
2023-06-04T01:24:51.059Z,90.88
2023-06-04T01:25:51.088Z,90.57
2023-06-04T01:26:51.097Z,90.88
2023-06-04T01:27:51.050Z,90.77
2023-06-04T01:28:51.012Z,90.67
2023-06-04T01:29:50.999Z,90.88
2023-06-04T01:30:51.015Z,90.88
2023-06-04T01:31:51.106Z,90.88
2023-06-04T01:32:50.995Z,90.57
2023-06-04T01:33:50.956Z,90.36
2023-06-04T01:34:50.951Z,90.16
2023-06-04T01:35:50.950Z,90.26
2023-06-04T01:36:50.924Z,90.57
2023-06-04T01:37:50.908Z,90.88
2023-06-04T01:38:50.910Z,91.12
2023-06-04T01:39:50.893Z,91.53
2023-06-04T01:40:50.877Z,91.94
2023-06-04T01:41:50.857Z,91.57
2023-06-04T01:42:50.845Z,91.57
2023-06-04T01:43:50.851Z,91.57
2023-06-04T01:44:50.843Z,91.43
2023-06-04T01:45:50.812Z,91.63
2023-06-04T01:46:50.874Z,91.83
2023-06-04T01:48:50.871Z,91.63
2023-06-04T01:49:50.809Z,91.74
2023-06-04T01:50:50.777Z,91.63
2023-06-04T01:51:50.751Z,91.83
2023-06-04T01:52:50.766Z,91.74
2023-06-04T01:53:50.733Z,91.83
2023-06-04T01:54:50.727Z,92.08
2023-06-04T01:55:50.728Z,92.08
2023-06-04T01:56:50.721Z,91.78
2023-06-04T01:57:50.720Z,91.98
2023-06-04T01:58:50.695Z,91.94
2023-06-04T01:59:50.677Z,92.14
2023-06-04T02:00:50.680Z,91.83
2023-06-04T02:01:50.695Z,91.53
2023-06-04T02:02:50.744Z,91.43
2023-06-04T02:03:50.671Z,91.63
2023-06-04T02:04:50.617Z,91.94
2023-06-04T02:05:50.606Z,91.98
2023-06-04T02:06:50.615Z,91.98
2023-06-04T02:07:50.569Z,91.88
2023-06-04T02:08:50.582Z,91.78
2023-06-04T02:09:50.553Z,91.37
2023-06-04T02:10:50.561Z,91.67
2023-06-04T02:11:50.520Z,91.47
2023-06-04T02:12:50.528Z,91.57
2023-06-04T02:13:50.533Z,91.57
2023-06-04T02:14:50.503Z,91.88
2023-06-04T02:15:50.506Z,92.69
2023-06-04T02:16:50.560Z,92.59
2023-06-04T02:17:50.503Z,92.49
2023-06-04T02:18:50.491Z,92.80
2023-06-04T02:19:50.449Z,92.80
2023-06-04T02:20:50.443Z,92.59
2023-06-04T02:21:50.417Z,92.43
2023-06-04T02:22:50.423Z,92.33
2023-06-04T02:23:50.428Z,92.33
2023-06-04T02:24:50.400Z,92.74
2023-06-04T02:25:50.409Z,93.05
2023-06-04T02:26:50.401Z,93.25
2023-06-04T02:27:50.359Z,93.55
2023-06-04T02:28:50.360Z,93.66
2023-06-04T02:29:50.343Z,93.66
2023-06-04T02:30:50.337Z,93.76
2023-06-04T02:31:50.331Z,93.76
2023-06-04T02:32:52.691Z,93.55
2023-06-04T02:33:50.282Z,93.45
2023-06-04T02:34:50.291Z,93.15
2023-06-04T02:35:50.278Z,93.25
2023-06-04T02:36:50.289Z,92.94
2023-06-04T02:37:50.260Z,93.25
2023-06-04T02:38:50.241Z,93.35
2023-06-04T02:39:50.241Z,93.25
2023-06-04T02:40:50.246Z,92.94
2023-06-04T02:41:50.213Z,93.45
2023-06-04T02:42:50.198Z,93.66
2023-06-04T02:43:50.228Z,93.05
2023-06-04T02:44:50.168Z,93.55
2023-06-04T02:45:50.177Z,93.55
2023-06-04T02:46:50.156Z,93.80
2023-06-04T02:47:50.212Z,93.80
2023-06-04T02:48:50.137Z,93.60
2023-06-04T02:49:50.128Z,93.50
2023-06-04T02:50:50.093Z,93.40
2023-06-04T02:51:50.093Z,93.50
2023-06-04T02:52:50.105Z,93.60
2023-06-04T02:53:50.094Z,93.60
2023-06-04T02:54:50.063Z,93.60
2023-06-04T02:55:50.057Z,93.50
2023-06-04T02:56:50.060Z,93.60
2023-06-04T02:57:50.050Z,93.60
2023-06-04T02:58:50.032Z,93.70
2023-06-04T02:59:49.991Z,94.11
2023-06-04T03:00:50.029Z,94.32
2023-06-04T03:01:50.042Z,94.32
2023-06-04T03:02:50.147Z,93.91
2023-06-04T03:03:49.980Z,94.11
2023-06-04T03:04:49.951Z,94.32
2023-06-04T03:05:49.929Z,94.21
2023-06-04T03:06:49.910Z,94.21
2023-06-04T03:07:49.922Z,94.42
2023-06-04T03:08:49.931Z,94.21
2023-06-04T03:09:49.899Z,94.26
2023-06-04T03:10:49.906Z,94.26
2023-06-04T03:11:49.876Z,94.21
2023-06-04T03:12:49.860Z,94.06
2023-06-04T03:13:49.870Z,94.01
2023-06-04T03:14:49.861Z,94.01
2023-06-04T03:15:49.922Z,93.91
2023-06-04T03:16:49.814Z,93.91
2023-06-04T03:17:49.834Z,93.80
2023-06-04T03:18:49.798Z,93.70
2023-06-04T03:19:49.790Z,93.80
2023-06-04T03:20:49.770Z,93.70
2023-06-04T03:21:49.752Z,93.80
2023-06-04T03:22:49.758Z,94.42
2023-06-04T03:23:49.822Z,94.62
2023-06-04T03:24:49.750Z,94.01
2023-06-04T03:25:49.725Z,94.32
2023-06-04T03:26:49.734Z,94.11
2023-06-04T03:27:49.717Z,93.91
2023-06-04T03:28:49.689Z,93.80
2023-06-04T03:29:49.675Z,93.29
2023-06-04T03:30:49.744Z,93.40
2023-06-04T03:31:49.674Z,93.19
2023-06-04T03:32:49.715Z,93.09
2023-06-04T03:33:49.637Z,92.99
2023-06-04T03:34:49.652Z,93.09
2023-06-04T03:35:49.603Z,93.19
2023-06-04T03:36:49.610Z,93.60
2023-06-04T03:37:49.598Z,93.60
2023-06-04T03:38:49.568Z,93.91
2023-06-04T03:39:49.562Z,94.52
2023-06-04T03:40:49.564Z,93.96
2023-06-04T03:41:49.539Z,93.86
2023-06-04T03:42:49.533Z,93.45
2023-06-04T03:43:49.525Z,93.35
2023-06-04T03:44:49.516Z,93.35
2023-06-04T03:45:49.524Z,93.25
2023-06-04T03:46:49.533Z,93.05
2023-06-04T03:47:49.511Z,93.15
2023-06-04T03:48:49.472Z,93.15
2023-06-04T03:49:49.455Z,93.15
2023-06-04T03:50:49.460Z,92.94
2023-06-04T03:51:49.427Z,93.15
2023-06-04T03:52:49.450Z,93.55
2023-06-04T03:53:49.394Z,93.66
2023-06-04T03:54:49.393Z,93.76
2023-06-04T03:55:49.413Z,93.66
2023-06-04T03:56:49.380Z,93.55
2023-06-04T03:57:49.348Z,93.55
2023-06-04T03:58:49.347Z,93.86
2023-06-04T03:59:49.326Z,93.66
2023-06-04T04:00:49.328Z,93.55
2023-06-04T04:01:49.407Z,93.70
2023-06-04T04:02:49.377Z,93.80
2023-06-04T04:03:49.457Z,94.21
2023-06-04T04:04:49.278Z,94.21
2023-06-04T04:05:49.271Z,94.42
2023-06-04T04:06:49.262Z,95.13
2023-06-04T04:07:49.238Z,95.13
2023-06-04T04:08:49.230Z,94.73
2023-06-04T04:09:49.235Z,94.01
2023-06-04T04:10:49.252Z,93.80
2023-06-04T04:11:49.211Z,93.80
2023-06-04T04:12:49.331Z,93.70
2023-06-04T04:13:49.205Z,93.80
2023-06-04T04:14:49.211Z,94.11
2023-06-04T04:15:49.191Z,94.21
2023-06-04T04:16:49.254Z,94.32
2023-06-04T04:17:49.206Z,94.32
2023-06-04T04:18:49.132Z,94.73
2023-06-04T04:19:49.122Z,94.82
2023-06-04T04:20:49.108Z,94.62
2023-06-04T04:21:49.098Z,94.52
2023-06-04T04:22:51.372Z,94.32
2023-06-04T04:23:49.122Z,94.21
2023-06-04T04:24:49.064Z,94.21
2023-06-04T04:25:49.045Z,94.11
2023-06-04T04:26:49.051Z,94.01
2023-06-04T04:27:49.027Z,93.91
2023-06-04T04:28:49.046Z,93.70
2023-06-04T04:29:49.010Z,93.80
2023-06-04T04:30:49.038Z,93.66
2023-06-04T04:31:48.986Z,93.66
2023-06-04T04:32:49.002Z,94.07
2023-06-04T04:33:48.957Z,94.37
2023-06-04T04:34:48.964Z,93.66
2023-06-04T04:35:48.955Z,94.27
2023-06-04T04:36:48.925Z,94.07
2023-06-04T04:37:48.942Z,94.07
2023-06-04T04:38:48.893Z,94.37
2023-06-04T04:39:48.911Z,94.89
2023-06-04T04:40:48.882Z,94.78
2023-06-04T04:41:48.856Z,94.78
2023-06-04T04:42:48.863Z,94.68
2023-06-04T04:43:48.858Z,94.37
2023-06-04T04:44:48.855Z,93.96
2023-06-04T04:45:48.836Z,93.55
2023-06-04T04:46:48.964Z,93.86
2023-06-04T04:47:48.847Z,93.76
2023-06-04T04:48:48.821Z,93.76
2023-06-04T04:49:50.406Z,94.27
2023-06-04T04:50:48.785Z,94.98
2023-06-04T04:51:48.828Z,94.89
2023-06-04T04:52:48.753Z,94.89
2023-06-04T04:53:48.778Z,94.89
2023-06-04T04:54:48.783Z,94.27
2023-06-04T04:55:48.741Z,93.96
2023-06-04T04:56:50.134Z,93.76
2023-06-04T04:57:48.679Z,93.31
2023-06-04T04:58:48.697Z,93.31
2023-06-04T04:59:48.674Z,93.00
2023-06-04T05:00:48.679Z,93.00
2023-06-04T05:01:48.731Z,92.90
2023-06-04T05:02:48.651Z,92.69
2023-06-04T05:03:48.640Z,92.69
2023-06-04T05:04:48.614Z,93.00
2023-06-04T05:05:48.611Z,93.21
2023-06-04T05:06:48.602Z,93.82
2023-06-04T05:07:48.600Z,94.12
2023-06-04T05:08:48.576Z,93.92
2023-06-04T05:09:48.582Z,94.08
2023-06-04T05:10:48.557Z,94.29
2023-06-04T05:11:48.549Z,93.88
2023-06-04T05:12:48.529Z,93.26
2023-06-04T05:13:48.517Z,93.16
2023-06-04T05:14:48.503Z,92.96
2023-06-04T05:15:48.509Z,92.76
2023-06-04T05:16:48.545Z,92.96
2023-06-04T05:17:48.529Z,93.37
2023-06-04T05:18:48.453Z,93.98
2023-06-04T05:19:48.500Z,93.26
2023-06-04T05:20:48.442Z,93.16
2023-06-04T05:21:48.419Z,93.16
2023-06-04T05:22:48.407Z,94.08
2023-06-04T05:23:48.455Z,94.18
2023-06-04T05:24:48.410Z,93.88
2023-06-04T05:25:48.396Z,94.08
2023-06-04T05:26:48.368Z,94.29
2023-06-04T05:27:48.398Z,93.77
2023-06-04T05:28:48.365Z,94.08
2023-06-04T05:29:48.348Z,93.77
2023-06-04T05:30:48.323Z,93.57
2023-06-04T05:31:48.365Z,94.08
2023-06-04T05:32:48.327Z,94.18
2023-06-04T05:33:48.300Z,94.29
2023-06-04T05:34:48.293Z,94.18
2023-06-04T05:35:48.279Z,94.55
2023-06-04T05:36:48.269Z,93.84
2023-06-04T05:37:48.280Z,92.61
2023-06-04T05:38:48.272Z,92.30
2023-06-04T05:39:48.245Z,92.71
2023-06-04T05:40:48.224Z,92.50
2023-06-04T05:41:48.204Z,92.41
2023-06-04T05:42:48.204Z,92.50
2023-06-04T05:43:48.180Z,92.46
2023-06-04T05:44:48.170Z,92.05
2023-06-04T05:45:48.199Z,91.85
2023-06-04T05:46:48.141Z,91.75
2023-06-04T05:47:48.186Z,92.16
2023-06-04T05:48:48.135Z,92.26
2023-06-04T05:49:48.144Z,92.26
2023-06-04T05:50:48.107Z,91.20
2023-06-04T05:51:48.113Z,90.08
2023-06-04T05:52:48.103Z,90.28
2023-06-04T05:53:48.088Z,89.67
2023-06-04T05:54:48.066Z,89.32
2023-06-04T05:55:48.048Z,88.92
2023-06-04T05:56:48.055Z,88.71
2023-06-04T05:57:48.047Z,88.92
2023-06-04T05:58:48.030Z,89.01
2023-06-04T05:59:48.009Z,89.12
2023-06-04T06:00:47.994Z,89.07
2023-06-04T06:01:47.999Z,89.07
2023-06-04T06:02:48.019Z,89.59
2023-06-04T06:03:48.023Z,89.48
2023-06-04T06:04:47.966Z,87.45
2023-06-04T06:05:47.954Z,87.10
2023-06-04T06:06:47.920Z,86.80
2023-06-04T06:07:48.032Z,86.29
2023-06-04T06:08:47.894Z,85.74
2023-06-04T06:09:47.895Z,85.13
2023-06-04T06:10:47.914Z,84.62
2023-06-04T06:11:47.884Z,84.99
2023-06-04T06:12:48.004Z,85.09
2023-06-04T06:13:47.848Z,84.88
2023-06-04T06:14:47.840Z,84.28
2023-06-04T06:15:47.900Z,84.07
2023-06-04T06:16:47.817Z,83.67
2023-06-04T06:17:47.824Z,83.62
2023-06-04T06:18:47.814Z,83.93
2023-06-04T06:19:47.798Z,83.83
2023-06-04T06:20:47.768Z,83.93
2023-06-04T06:21:47.760Z,83.73
2023-06-04T06:22:47.758Z,82.81
2023-06-04T06:23:47.785Z,82.87
2023-06-04T06:24:47.716Z,82.98
2023-06-04T06:25:47.720Z,81.62
2023-06-04T06:26:47.707Z,81.01
2023-06-04T06:27:47.697Z,80.30
2023-06-04T06:28:47.666Z,80.10
2023-06-04T06:29:47.690Z,79.96
2023-06-04T06:30:47.682Z,80.06
2023-06-04T06:31:47.710Z,79.96
2023-06-04T06:32:47.752Z,79.35
2023-06-04T06:33:47.632Z,79.82
2023-06-04T06:34:47.622Z,79.72
2023-06-04T06:35:47.776Z,79.72
2023-06-04T06:36:47.599Z,79.07
2023-06-04T06:37:47.584Z,75.73
2023-06-04T06:38:47.580Z,76.40
2023-06-04T06:39:47.576Z,74.84
2023-06-04T06:40:47.553Z,74.91
2023-06-04T06:41:47.556Z,74.91
2023-06-04T06:42:47.568Z,76.32
2023-06-04T06:43:47.540Z,73.80
2023-06-04T06:44:47.516Z,72.44
2023-06-04T06:45:47.513Z,72.44
2023-06-04T06:46:47.548Z,72.01
2023-06-04T06:47:47.559Z,71.91
2023-06-04T06:48:47.452Z,71.17
2023-06-04T06:49:47.447Z,71.47
2023-06-04T06:50:47.446Z,70.76
2023-06-04T06:51:47.442Z,70.86
2023-06-04T06:52:47.441Z,70.86
2023-06-04T06:53:47.398Z,70.83
2023-06-04T06:54:47.392Z,69.62
2023-06-04T06:55:47.425Z,69.31
2023-06-04T06:56:47.361Z,69.11
2023-06-04T06:57:47.374Z,69.08
2023-06-04T06:58:47.347Z,68.47
2023-06-04T06:59:47.355Z,68.07
2023-06-04T07:00:47.484Z,67.66
2023-06-04T07:01:47.432Z,67.83
2023-06-04T07:02:47.365Z,66.02
2023-06-04T07:03:47.306Z,66.69
2023-06-04T07:04:47.276Z,67.30
2023-06-04T07:05:47.270Z,66.39
2023-06-04T07:06:47.287Z,67.50
2023-06-04T07:07:47.261Z,66.96
2023-06-04T07:08:47.254Z,66.86
2023-06-04T07:09:47.227Z,65.25
2023-06-04T07:10:47.246Z,65.95
2023-06-04T07:11:47.229Z,65.45
2023-06-04T07:12:47.203Z,65.55
2023-06-04T07:13:47.210Z,65.55
2023-06-04T07:14:47.177Z,65.55
2023-06-04T07:15:47.193Z,65.45
2023-06-04T07:16:47.166Z,65.45
2023-06-04T07:17:47.218Z,64.72
2023-06-04T07:18:47.122Z,65.72
2023-06-04T07:19:47.131Z,66.02
2023-06-04T07:20:47.121Z,63.90
2023-06-04T07:21:47.098Z,65.01
2023-06-04T07:22:47.090Z,65.39
2023-06-04T07:23:47.145Z,64.98
2023-06-04T07:24:47.061Z,64.38
2023-06-04T07:25:47.052Z,63.47
2023-06-04T07:26:47.054Z,63.47
2023-06-04T07:27:47.062Z,64.65
2023-06-04T07:28:47.027Z,64.86
2023-06-04T07:29:47.038Z,63.24
2023-06-04T07:30:47.076Z,62.74
2023-06-04T07:31:47.091Z,62.94
2023-06-04T07:32:47.020Z,64.22
2023-06-04T07:33:47.013Z,62.30
2023-06-04T07:34:46.962Z,63.11
2023-06-04T07:35:46.956Z,63.01
2023-06-04T07:36:46.946Z,63.31
2023-06-04T07:37:46.962Z,63.51
2023-06-04T07:38:46.924Z,64.02
2023-06-04T07:39:46.919Z,62.10
2023-06-04T07:40:46.925Z,62.61
2023-06-04T07:41:46.904Z,63.21
2023-06-04T07:42:46.888Z,62.21
2023-06-04T07:43:46.880Z,62.07
2023-06-04T07:44:46.882Z,63.08
2023-06-04T07:45:46.903Z,62.88
2023-06-04T07:46:46.856Z,62.88
2023-06-04T07:47:46.865Z,61.77
2023-06-04T07:48:46.829Z,61.57
2023-06-04T07:49:58.397Z,61.87
2023-06-04T07:50:46.828Z,62.27
2023-06-04T07:51:46.799Z,63.59
2023-06-04T07:52:46.801Z,62.07
2023-06-04T07:53:46.794Z,62.98
2023-06-04T07:54:46.773Z,62.15
2023-06-04T07:55:46.771Z,62.75
2023-06-04T07:56:46.745Z,61.34
2023-06-04T07:57:46.747Z,61.04
2023-06-04T07:58:46.732Z,61.04
2023-06-04T07:59:46.713Z,60.74
2023-06-04T08:00:46.709Z,61.65
2023-06-04T08:01:46.700Z,62.35
2023-06-04T08:02:46.831Z,61.91
2023-06-04T08:03:46.782Z,61.71
2023-06-04T08:04:46.743Z,61.61
2023-06-04T08:05:46.667Z,60.58
2023-06-04T08:06:46.646Z,60.18
2023-06-04T08:07:46.641Z,61.18
2023-06-04T08:08:46.994Z,60.68
2023-06-04T08:09:46.733Z,61.58
2023-06-04T08:10:46.616Z,60.35
2023-06-04T08:11:46.669Z,60.05
2023-06-04T08:12:46.600Z,59.72
2023-06-04T08:13:46.583Z,61.13
2023-06-04T08:14:46.588Z,60.32
2023-06-04T08:15:46.563Z,59.42
2023-06-04T08:16:46.684Z,59.62
2023-06-04T08:17:46.578Z,59.12
2023-06-04T08:18:46.536Z,60.42
2023-06-04T08:19:46.523Z,59.92
2023-06-04T08:20:46.508Z,59.52
2023-06-04T08:21:46.501Z,59.85
2023-06-04T08:22:46.532Z,59.55
2023-06-04T08:23:46.523Z,59.85
2023-06-04T08:24:46.466Z,59.75
2023-06-04T08:25:46.470Z,60.35
2023-06-04T08:26:46.446Z,60.45
2023-06-04T08:27:46.440Z,60.22
2023-06-04T08:28:46.415Z,60.82
2023-06-04T08:29:46.456Z,61.76
2023-06-04T08:30:46.433Z,60.22
2023-06-04T08:31:46.398Z,60.93
2023-06-04T08:32:46.466Z,59.92
2023-06-04T08:33:46.384Z,60.29
2023-06-04T08:34:46.368Z,59.79
2023-06-04T08:35:46.377Z,59.79
2023-06-04T08:36:46.339Z,58.96
2023-06-04T08:37:46.320Z,59.44
2023-06-04T08:38:50.926Z,60.03
2023-06-04T08:39:46.302Z,58.43
2023-06-04T08:40:46.320Z,58.94
2023-06-04T08:41:46.279Z,59.13
2023-06-04T08:42:46.276Z,60.74
2023-06-04T08:43:46.260Z,59.86
2023-06-04T08:44:46.270Z,59.66
2023-06-04T08:45:46.296Z,58.83
2023-06-04T08:46:46.223Z,60.24
2023-06-04T08:47:46.247Z,60.16
2023-06-04T08:48:46.210Z,61.07
2023-06-04T08:49:46.204Z,60.36
2023-06-04T08:50:46.176Z,58.56
2023-06-04T08:51:46.180Z,59.36
2023-06-04T08:52:46.162Z,59.66
2023-06-04T08:53:46.156Z,58.66
2023-06-04T08:54:46.152Z,59.56
2023-06-04T08:55:46.138Z,60.16
2023-06-04T08:56:46.134Z,60.16
2023-06-04T08:57:46.125Z,58.89
2023-06-04T08:58:46.093Z,58.86
2023-06-04T08:59:46.088Z,59.56
2023-06-04T09:00:46.093Z,60.47
2023-06-04T09:01:46.240Z,60.36
2023-06-04T09:02:46.139Z,60.64
2023-06-04T09:03:46.096Z,59.44
2023-06-04T09:04:46.030Z,58.40
2023-06-04T09:05:46.020Z,62.31
2023-06-04T09:06:46.028Z,60.31
2023-06-04T09:07:46.004Z,59.41
2023-06-04T09:08:53.734Z,58.91
2023-06-04T09:09:46.515Z,59.11
2023-06-04T09:10:45.944Z,59.81
2023-06-04T09:11:45.970Z,59.31
2023-06-04T09:12:45.950Z,59.20
2023-06-04T09:13:45.933Z,59.70
2023-06-04T09:14:45.927Z,58.81
2023-06-04T09:15:45.981Z,58.61
2023-06-04T09:16:45.898Z,58.50
2023-06-04T09:17:45.964Z,59.41
2023-06-04T09:18:45.861Z,58.11
2023-06-04T09:19:45.878Z,57.30
2023-06-04T09:20:45.873Z,57.48
2023-06-04T09:21:45.845Z,57.07
2023-06-04T09:22:45.816Z,57.87
2023-06-04T09:23:45.892Z,55.98
2023-06-04T09:24:45.804Z,57.15
2023-06-04T09:25:47.353Z,56.35
2023-06-04T09:26:45.967Z,57.45
2023-06-04T09:27:45.759Z,57.75
2023-06-04T09:28:45.772Z,56.85
2023-06-04T09:29:45.752Z,56.65
2023-06-04T09:30:45.757Z,56.72
2023-06-04T09:31:45.802Z,56.42
2023-06-04T09:32:45.797Z,56.72
2023-06-04T09:33:45.700Z,56.62
2023-06-04T09:34:45.714Z,56.02
2023-06-04T09:35:45.684Z,56.92
2023-06-04T09:36:45.681Z,56.32
2023-06-04T09:37:45.689Z,55.12
2023-06-04T09:38:45.642Z,55.49
2023-06-04T09:39:45.634Z,55.49
2023-06-04T09:40:45.640Z,55.49
2023-06-04T09:41:45.613Z,55.49
2023-06-04T09:42:45.623Z,55.36
2023-06-04T09:43:45.587Z,57.17
2023-06-04T09:44:45.579Z,57.14
2023-06-04T09:45:45.571Z,54.94
2023-06-04T09:46:45.602Z,54.14
2023-06-04T09:47:45.573Z,53.81
2023-06-04T09:48:45.534Z,55.41
2023-06-04T09:49:45.531Z,54.22
2023-06-04T09:50:45.535Z,53.54
2023-06-04T09:51:45.504Z,53.84
2023-06-04T09:52:45.487Z,54.97
2023-06-04T09:53:45.528Z,55.74
2023-06-04T09:54:45.480Z,56.14
2023-06-04T09:55:45.486Z,55.44
2023-06-04T09:56:45.431Z,54.44
2023-06-04T09:57:45.424Z,54.61
2023-06-04T09:58:45.412Z,56.01
2023-06-04T09:59:45.403Z,55.79
2023-06-04T10:00:45.387Z,54.66
2023-06-04T10:01:45.501Z,54.19
2023-06-04T10:02:45.472Z,53.69
2023-06-04T10:03:45.477Z,54.11
2023-06-04T10:04:45.345Z,54.02
2023-06-04T10:05:45.329Z,55.11
2023-06-04T10:06:45.316Z,54.52
2023-06-04T10:07:45.322Z,56.44
2023-06-04T10:08:45.311Z,55.14
2023-06-04T10:09:45.311Z,54.74
2023-06-04T10:10:45.303Z,56.24
2023-06-04T10:11:45.306Z,56.74
2023-06-04T10:12:45.257Z,57.54
2023-06-04T10:13:45.234Z,54.54
2023-06-04T10:14:45.268Z,53.57
2023-06-04T10:15:45.242Z,55.17
2023-06-04T10:16:45.249Z,54.06
2023-06-04T10:17:45.191Z,55.07
2023-06-04T10:18:45.289Z,55.14
2023-06-04T10:19:45.179Z,57.34
2023-06-04T10:20:45.170Z,57.21
2023-06-04T10:21:45.168Z,58.48
2023-06-04T10:22:45.159Z,55.69
2023-06-04T10:23:45.178Z,53.59
2023-06-04T10:24:45.129Z,53.17
2023-06-04T10:25:45.104Z,52.97
2023-06-04T10:26:45.132Z,54.06
2023-06-04T10:27:45.098Z,53.29
2023-06-04T10:28:45.081Z,53.09
2023-06-04T10:29:45.082Z,53.59
2023-06-04T10:30:45.072Z,55.69
2023-06-04T10:31:45.094Z,54.49
2023-06-04T10:32:45.078Z,53.29
2023-06-04T10:33:45.043Z,52.92
2023-06-04T10:34:45.001Z,53.31
2023-06-04T10:35:44.985Z,53.81
2023-06-04T10:36:44.990Z,54.79
2023-06-04T10:37:44.975Z,52.89
2023-06-04T10:38:44.950Z,53.79
2023-06-04T10:39:44.954Z,53.69
2023-06-04T10:40:44.935Z,55.19
2023-06-04T10:41:44.917Z,55.76
2023-06-04T10:42:44.928Z,52.87
2023-06-04T10:43:44.917Z,53.17
2023-06-04T10:44:44.989Z,51.37
2023-06-04T10:45:44.900Z,51.84
2023-06-04T10:46:45.007Z,51.27
2023-06-04T10:47:44.887Z,52.57
2023-06-04T10:48:44.855Z,52.97
2023-06-04T10:49:44.851Z,52.57
2023-06-04T10:50:44.833Z,53.56
2023-06-04T10:51:45.035Z,52.74
2023-06-04T10:52:44.829Z,54.04
2023-06-04T10:53:44.789Z,54.34
2023-06-04T10:54:44.782Z,54.11
2023-06-04T10:55:44.771Z,54.01
2023-06-04T10:56:44.758Z,51.29
2023-06-04T10:57:44.737Z,51.50
2023-06-04T10:58:44.732Z,52.37
2023-06-04T10:59:44.714Z,52.17
2023-06-04T11:00:44.713Z,52.04
2023-06-04T11:01:44.758Z,51.65
2023-06-04T11:02:44.764Z,50.38
2023-06-04T11:03:44.730Z,51.17
2023-06-04T11:04:44.687Z,50.78
2023-06-04T11:05:44.625Z,51.50
2023-06-04T11:06:44.619Z,51.40
2023-06-04T11:07:44.614Z,50.02
2023-06-04T11:08:44.625Z,50.52
2023-06-04T11:09:44.586Z,51.42
2023-06-04T11:10:44.649Z,51.10
2023-06-04T11:11:44.563Z,50.70
2023-06-04T11:12:44.597Z,49.70
2023-06-04T11:13:44.542Z,50.48
2023-06-04T11:14:44.541Z,51.07
2023-06-04T11:15:44.553Z,50.57
2023-06-04T11:16:44.516Z,47.96
2023-06-04T11:17:44.553Z,48.08
2023-06-04T11:18:44.512Z,49.98
2023-06-04T11:19:44.482Z,49.98
2023-06-04T11:20:44.462Z,48.88
2023-06-04T11:21:44.473Z,49.88
2023-06-04T11:22:44.424Z,50.48
2023-06-04T11:23:44.467Z,51.97
2023-06-04T11:24:44.430Z,51.77
2023-06-04T11:25:44.414Z,51.67
2023-06-04T11:26:53.535Z,49.58
2023-06-04T11:27:44.363Z,49.90
2023-06-04T11:28:44.388Z,52.49
2023-06-04T11:29:44.352Z,53.49
2023-06-04T11:30:44.343Z,49.13
2023-06-04T11:31:44.427Z,49.87
2023-06-04T11:32:44.347Z,50.79
2023-06-04T11:33:44.287Z,50.32
2023-06-04T11:34:44.322Z,50.62
2023-06-04T11:35:44.275Z,51.42
2023-06-04T11:36:44.264Z,52.12
2023-06-04T11:37:44.260Z,51.82
2023-06-04T11:38:44.260Z,51.22
2023-06-04T11:39:44.250Z,52.02
2023-06-04T11:40:44.225Z,52.42
2023-06-04T11:41:44.203Z,52.62
2023-06-04T11:42:44.219Z,51.62
2023-06-04T11:43:44.202Z,52.52
2023-06-04T11:44:44.170Z,53.52
2023-06-04T11:45:44.167Z,53.29
2023-06-04T11:46:44.170Z,52.39
2023-06-04T11:47:44.221Z,52.69
2023-06-04T11:48:44.170Z,51.59
2023-06-04T11:49:44.142Z,51.29
2023-06-04T11:50:44.122Z,53.49
2023-06-04T11:51:44.098Z,52.59
2023-06-04T11:52:44.080Z,51.70
2023-06-04T11:53:44.083Z,52.17
2023-06-04T11:54:44.068Z,52.04
2023-06-04T11:55:44.077Z,51.25
2023-06-04T11:56:44.055Z,50.73
2023-06-04T11:57:44.011Z,50.92
2023-06-04T11:58:44.012Z,50.43
2023-06-04T11:59:44.002Z,52.02
2023-06-04T12:00:43.984Z,50.23
2023-06-04T12:01:44.024Z,50.92
2023-06-04T12:02:44.033Z,51.82
2023-06-04T12:03:44.015Z,52.55
2023-06-04T12:04:43.993Z,50.45
2023-06-04T12:05:43.991Z,52.14
2023-06-04T12:06:48.956Z,54.44
2023-06-04T12:07:43.909Z,51.47
2023-06-04T12:08:43.904Z,52.37
2023-06-04T12:09:43.876Z,52.57
2023-06-04T12:10:43.914Z,53.34
2023-06-04T12:11:43.854Z,52.74
2023-06-04T12:12:43.861Z,52.44
2023-06-04T12:13:43.841Z,52.04
2023-06-04T12:14:43.867Z,51.52
2023-06-04T12:15:43.821Z,52.81
2023-06-04T12:16:43.857Z,50.85
2023-06-04T12:17:43.826Z,51.25
2023-06-04T12:18:43.790Z,51.75
2023-06-04T12:19:43.801Z,52.74
2023-06-04T12:20:44.009Z,53.44
2023-06-04T12:21:43.765Z,53.44
2023-06-04T12:22:43.776Z,52.84
2023-06-04T12:23:43.821Z,51.54
2023-06-04T12:24:43.724Z,51.15
2023-06-04T12:25:43.718Z,51.84
2023-06-04T12:26:43.972Z,51.84
2023-06-04T12:27:43.673Z,51.84
2023-06-04T12:28:43.685Z,50.65
2023-06-04T12:29:43.654Z,50.02
2023-06-04T12:30:43.647Z,51.62
2023-06-04T12:31:44.633Z,51.20
2023-06-04T12:32:43.622Z,52.57
2023-06-04T12:33:43.612Z,50.10
2023-06-04T12:34:43.599Z,50.60
2023-06-04T12:35:43.587Z,48.80
2023-06-04T12:36:43.574Z,52.19
2023-06-04T12:37:43.584Z,51.89
2023-06-04T12:38:43.572Z,50.50
2023-06-04T12:39:43.536Z,51.62
2023-06-04T12:40:43.544Z,51.92
2023-06-04T12:41:43.510Z,51.72
2023-06-04T12:42:43.566Z,50.85
2023-06-04T12:43:43.501Z,51.05
2023-06-04T12:44:43.540Z,50.05
2023-06-04T12:45:43.507Z,50.95
2023-06-04T12:46:43.509Z,51.15
2023-06-04T12:47:43.484Z,51.54
2023-06-04T12:48:43.455Z,50.65
2023-06-04T12:49:43.433Z,50.74
2023-06-04T12:50:43.412Z,50.15
2023-06-04T12:51:43.422Z,50.45
2023-06-04T12:52:43.397Z,50.85
2023-06-04T12:53:43.545Z,51.65